Time;durP1;ratioP1;P1;durP2;ratioP2;P2;SDS_P1;SDS_P2;PMS_P1;PMS_P2;Temp;Humidity;BMP_temperature;BMP_pressure;BME280_temperature;BME280_humidity;BME280_pressure;Samples;Min_cycle;Max_cycle;Signal;HPM_P1;HPM_P2
2023/07/08 00:01:01;;;;;;;0.00;0.00;;;19.40;99.90;;;;;;7375124;19;20155;-71
2023/07/08 00:03:30;;;;;;;0.00;0.00;;;19.30;99.90;;;;;;7373989;19;20192;-71
2023/07/08 00:05:59;;;;;;;0.00;0.00;;;;;;;;;;7374039;19;20156;-71
2023/07/08 00:08:28;;;;;;;0.00;0.00;;;;;;;;;;7374809;19;20171;-72
2023/07/08 00:10:57;;;;;;;0.00;0.00;;;;;;;;;;7374842;19;20165;-73
2023/07/08 00:13:26;;;;;;;0.00;0.00;;;;;;;;;;7373523;19;20165;-74
2023/07/08 00:15:55;;;;;;;0.00;0.00;;;;;;;;;;7373718;19;20160;-71
2023/07/08 00:18:29;;;;;;;0.00;0.00;;;;;;;;;;7372922;19;20227;-74
2023/07/08 00:20:58;;;;;;;0.00;0.00;;;;;;;;;;7374440;19;20152;-71
2023/07/08 00:23:27;;;;;;;0.00;0.00;;;;;;;;;;7373601;19;20156;-72
2023/07/08 00:25:56;;;;;;;0.00;0.00;;;;;;;;;;7373028;19;20156;-71
2023/07/08 00:28:25;;;;;;;0.00;0.00;;;;;;;;;;7373194;19;20160;-72
2023/07/08 00:30:57;;;;;;;0.00;0.00;;;;;;;;;;7373801;19;20148;-73
2023/07/08 00:33:26;;;;;;;0.00;0.00;;;;;;;;;;7372325;19;20172;-73
2023/07/08 00:35:58;;;;;;;0.00;0.00;;;;;;;;;;7367975;19;20186;-72
2023/07/08 00:38:29;;;;;;;0.00;0.00;;;18.70;99.90;;;;;;7357628;19;20148;-73
2023/07/08 00:41:06;;;;;;;0.00;0.00;;;18.70;99.90;;;;;;7371383;19;20145;-72
2023/07/08 00:43:41;;;;;;;0.00;0.00;;;;;;;;;;7372183;19;20184;-72
2023/07/08 00:46:17;;;;;;;0.00;0.00;;;;;;;;;;7368652;19;20176;-72
2023/07/08 00:48:48;;;;;;;0.00;0.00;;;;;;;;;;7371351;19;20181;-74
2023/07/08 00:51:21;;;;;;;0.00;0.00;;;;;;;;;;7374623;19;20152;-72
2023/07/08 00:53:50;;;;;;;0.00;0.00;;;;;;;;;;7371688;19;20184;-72
2023/07/08 00:56:20;;;;;;;0.00;0.00;;;;;;;;;;7370418;19;20164;-73
2023/07/08 00:58:52;;;;;;;0.00;0.00;;;;;;;;;;7371809;19;20191;-73
2023/07/08 01:01:21;;;;;;;0.00;0.00;;;;;;;;;;7373119;19;20148;-72
2023/07/08 01:03:52;;;;;;;0.00;0.00;;;;;;;;;;7371783;19;20207;-73
2023/07/08 01:06:31;;;;;;;0.00;0.00;;;18.50;99.90;;;;;;7371356;19;20149;-72
2023/07/08 01:09:04;;;;;;;0.00;0.00;;;;;;;;;;7370526;19;20261;-74
2023/07/08 01:11:35;;;;;;;0.00;0.00;;;18.00;99.90;;;;;;7371353;19;20152;-73
2023/07/08 01:14:06;;;;;;;0.00;0.00;;;18.20;99.90;;;;;;7372841;19;20256;-71
2023/07/08 01:16:36;;;;;;;0.00;0.00;;;18.20;99.90;;;;;;7369725;19;20188;-72
2023/07/08 01:19:06;;;;;;;0.00;0.00;;;18.10;99.90;;;;;;7369450;19;20164;-73
2023/07/08 01:21:40;;;;;;;0.00;0.00;;;18.10;99.90;;;;;;7371754;19;20178;-74
2023/07/08 01:24:14;;;;;;;0.00;0.00;;;18.10;99.90;;;;;;7370162;19;20184;-72
2023/07/08 01:26:46;;;;;;;0.00;0.00;;;18.10;99.90;;;;;;7370350;19;20186;-73
2023/07/08 01:29:16;;;;;;;0.00;0.00;;;18.10;99.90;;;;;;7372062;19;20170;-71
2023/07/08 01:31:48;;;;;;;0.00;0.00;;;18.00;99.90;;;;;;7371558;19;20148;-70
2023/07/08 01:34:18;;;;;;;0.00;0.00;;;17.90;99.90;;;;;;7371279;19;20184;-71
2023/07/08 01:36:50;;;;;;;0.00;0.00;;;17.90;99.90;;;;;;7369195;19;20156;-72
2023/07/08 01:39:25;;;;;;;0.00;0.00;;;17.90;99.90;;;;;;7369147;19;20172;-75
2023/07/08 01:41:54;;;;;;;0.00;0.00;;;17.80;99.90;;;;;;7372584;19;20148;-73
2023/07/08 01:44:31;;;;;;;0.00;0.00;;;17.80;99.90;;;;;;7369445;19;20184;-73
2023/07/08 01:47:05;;;;;;;0.00;0.00;;;17.80;99.90;;;;;;7370754;19;20160;-72
2023/07/08 01:49:36;;;;;;;0.00;0.00;;;17.70;99.90;;;;;;7370104;19;20147;-74
2023/07/08 01:52:06;;;;;;;0.00;0.00;;;17.70;99.90;;;;;;7378256;19;20152;-74
2023/07/08 01:54:37;;;;;;;0.00;0.00;;;17.70;99.90;;;;;;7374973;19;20214;-75
2023/07/08 01:57:07;;;;;;;0.00;0.00;;;17.70;99.90;;;;;;7378133;19;20153;-74
2023/07/08 01:59:36;;;;;;;0.00;0.00;;;17.70;99.90;;;;;;7377011;19;20546;-72
2023/07/08 02:02:06;;;;;;;0.00;0.00;;;17.60;99.90;;;;;;7378081;19;20182;-73
2023/07/08 02:04:35;;;;;;;0.00;0.00;;;;;;;;;;7374475;19;20491;-73
2023/07/08 02:07:04;;;;;;;0.00;0.00;;;;;;;;;;7376441;19;20180;-71
2023/07/08 02:09:33;;;;;;;0.00;0.00;;;;;;;;;;7373342;19;20153;-71
2023/07/08 02:12:05;;;;;;;0.00;0.00;;;;;;;;;;7378628;19;20164;-71
2023/07/08 02:14:34;;;;;;;0.00;0.00;;;;;;;;;;7375627;19;20180;-73
2023/07/08 02:17:05;;;;;;;0.00;0.00;;;;;;;;;;7376584;19;20140;-71
2023/07/08 02:19:35;;;;;;;0.00;0.00;;;;;;;;;;7368842;19;20157;-72
2023/07/08 02:22:04;;;;;;;0.00;0.00;;;;;;;;;;7374772;19;20184;-71
2023/07/08 02:24:33;;;;;;;0.00;0.00;;;;;;;;;;7374566;19;20183;-71
2023/07/08 02:27:05;;;;;;;0.00;0.00;;;;;;;;;;7376914;19;20149;-74
2023/07/08 02:29:34;;;;;;;0.00;0.00;;;;;;;;;;7375205;19;20164;-72
2023/07/08 02:32:03;;;;;;;0.00;0.00;;;;;;;;;;7376155;19;20152;-74
2023/07/08 02:34:32;;;;;;;0.00;0.00;;;;;;;;;;7374672;19;20187;-73
2023/07/08 02:37:02;;;;;;;0.00;0.00;;;;;;;;;;7375247;19;20186;-71
2023/07/08 02:39:31;;;;;;;0.00;0.00;;;;;;;;;;7374492;19;20145;-72
2023/07/08 02:42:00;;;;;;;0.00;0.00;;;;;;;;;;7376267;19;20271;-73
2023/07/08 02:44:32;;;;;;;0.00;0.00;;;;;;;;;;7373302;19;20189;-73
2023/07/08 02:47:02;;;;;;;0.03;0.03;;;;;;;;;;7372725;19;20149;-71
2023/07/08 02:49:31;;;;;;;0.00;0.00;;;;;;;;;;7377758;19;20151;-71
2023/07/08 02:52:00;;;;;;;0.00;0.00;;;;;;;;;;7378456;19;20152;-73
2023/07/08 02:54:29;;;;;;;0.00;0.00;;;;;;;;;;7375230;19;20193;-70
2023/07/08 02:56:58;;;;;;;0.00;0.00;;;;;;;;;;7371014;19;20152;-72
2023/07/08 02:59:28;;;;;;;0.00;0.00;;;;;;;;;;7376458;19;20153;-71
2023/07/08 03:02:00;;;;;;;0.00;0.00;;;;;;;;;;7374541;19;20148;-73
2023/07/08 03:04:30;;;;;;;0.00;0.00;;;;;;;;;;7375881;19;20183;-70
2023/07/08 03:06:59;;;;;;;0.10;0.10;;;;;;;;;;7375807;19;20152;-74
2023/07/08 03:09:28;;;;;;;0.00;0.00;;;;;;;;;;7375937;19;20163;-73
2023/07/08 03:11:58;;;;;;;0.00;0.00;;;;;;;;;;7375866;19;20156;-74
2023/07/08 03:14:27;;;;;;;0.00;0.00;;;;;;;;;;7375893;19;20191;-72
2023/07/08 03:16:56;;;;;;;0.00;0.00;;;;;;;;;;7375600;19;20149;-73
2023/07/08 03:19:28;;;;;;;0.00;0.00;;;;;;;;;;7374187;19;20161;-72
2023/07/08 03:21:57;;;;;;;0.03;0.03;;;;;;;;;;7376939;19;20153;-71
2023/07/08 03:24:29;;;;;;;0.00;0.00;;;;;;;;;;7373742;19;20184;-71
2023/07/08 03:27:04;;;;;;;0.00;0.00;;;;;;;;;;7375682;19;20159;-72
2023/07/08 03:29:36;;;;;;;0.00;0.00;;;;;;;;;;7374836;19;20478;-72
2023/07/08 03:32:06;;;;;;;0.00;0.00;;;;;;;;;;7371961;19;20161;-72
2023/07/08 03:34:38;;;;;;;0.00;0.00;;;;;;;;;;7372490;19;20184;-72
2023/07/08 03:37:07;;;;;;;0.00;0.00;;;;;;;;;;7375254;19;20161;-71
2023/07/08 03:39:37;;;;;;;0.00;0.00;;;;;;;;;;7373755;19;20644;-72
2023/07/08 03:42:06;;;;;;;0.00;0.00;;;;;;;;;;7375280;19;20192;-72
2023/07/08 03:44:35;;;;;;;0.00;0.00;;;;;;;;;;7373615;19;20214;-72
2023/07/08 03:47:04;;;;;;;0.00;0.00;;;;;;;;;;7373905;19;20173;-72
2023/07/08 03:49:33;;;;;;;0.00;0.00;;;;;;;;;;7374819;19;20164;-73
2023/07/08 03:52:05;;;;;;;0.00;0.00;;;;;;;;;;7375006;19;20148;-73
2023/07/08 03:54:34;;;;;;;0.00;0.00;;;;;;;;;;7373401;19;20180;-74
2023/07/08 03:57:03;;;;;;;0.00;0.00;;;;;;;;;;7374912;19;20148;-72
2023/07/08 03:59:34;;;;;;;0.00;0.00;;;;;;;;;;7372786;19;20144;-71
2023/07/08 04:02:03;;;;;;;0.00;0.00;;;;;;;;;;7375548;19;20163;-70
2023/07/08 04:04:32;;;;;;;0.00;0.00;;;;;;;;;;7373834;19;20180;-71
2023/07/08 04:07:01;;;;;;;0.00;0.00;;;;;;;;;;7374085;19;20157;-71
2023/07/08 04:09:33;;;;;;;0.00;0.00;;;;;;;;;;7371272;19;20156;-69
2023/07/08 04:12:02;;;;;;;0.00;0.00;;;;;;;;;;7375147;19;20184;-70
2023/07/08 04:14:31;;;;;;;0.00;0.00;;;;;;;;;;7373336;19;20173;-71
2023/07/08 04:17:02;;;;;;;0.00;0.00;;;;;;;;;;7372873;19;20157;-71
2023/07/08 04:19:31;;;;;;;0.00;0.00;;;;;;;;;;7369098;19;20162;-70
2023/07/08 04:22:00;;;;;;;0.00;0.00;;;;;;;;;;7374233;19;20153;-72
2023/07/08 04:24:29;;;;;;;0.00;0.00;;;;;;;;;;7371914;19;20251;-71
2023/07/08 04:27:01;;;;;;;0.00;0.00;;;;;;;;;;7373031;19;20201;-70
2023/07/08 04:29:30;;;;;;;0.00;0.00;;;;;;;;;;7372697;19;20160;-73
2023/07/08 04:31:59;;;;;;;0.00;0.00;;;;;;;;;;7372212;19;20612;-70
2023/07/08 04:34:28;;;;;;;0.00;0.00;;;;;;;;;;7373238;19;20180;-71
2023/07/08 04:36:57;;;;;;;0.00;0.00;;;;;;;;;;7372204;19;20186;-71
2023/07/08 04:39:26;;;;;;;0.00;0.00;;;;;;;;;;7374478;19;20172;-71
2023/07/08 04:41:55;;;;;;;0.00;0.00;;;;;;;;;;7372922;19;20152;-70
2023/07/08 04:44:27;;;;;;;0.00;0.00;;;;;;;;;;7371969;19;20176;-70
2023/07/08 04:46:57;;;;;;;0.00;0.00;;;;;;;;;;7372077;19;20149;-70
2023/07/08 04:49:31;;;;;;;0.00;0.00;;;;;;;;;;7373858;19;20148;-70
2023/07/08 04:52:01;;;;;;;0.00;0.00;;;;;;;;;;7374961;19;20158;-69
2023/07/08 04:54:30;;;;;;;0.00;0.00;;;;;;;;;;7371073;19;20180;-71
2023/07/08 04:56:59;;;;;;;0.00;0.00;;;;;;;;;;7372248;19;20147;-70
2023/07/08 04:59:34;;;;;;;0.00;0.00;;;;;;;;;;7372861;19;20489;-70
2023/07/08 05:02:03;;;;;;;0.00;0.00;;;;;;;;;;7374305;19;20162;-70
2023/07/08 05:04:32;;;;;;;0.00;0.00;;;;;;;;;;7370518;19;20218;-71
2023/07/08 05:07:01;;;;;;;0.00;0.00;;;;;;;;;;7369651;19;20156;-70
2023/07/08 05:09:31;;;;;;;0.00;0.00;;;;;;;;;;7366037;19;20774;-71
2023/07/08 05:12:00;;;;;;;0.00;0.00;;;;;;;;;;7370354;19;20152;-71
2023/07/08 05:14:32;;;;;;;0.00;0.00;;;;;;;;;;7368677;19;20180;-71
2023/07/08 05:17:01;;;;;;;0.00;0.00;;;;;;;;;;7369873;19;20163;-72
2023/07/08 05:19:30;;;;;;;0.00;0.00;;;;;;;;;;7365939;19;20164;-70
2023/07/08 05:21:59;;;;;;;0.00;0.00;;;;;;;;;;7370512;19;20148;-71
2023/07/08 05:24:28;;;;;;;0.00;0.00;;;;;;;;;;7372123;19;20184;-71
2023/07/08 05:26:58;;;;;;;0.00;0.00;;;;;;;;;;7376539;19;20156;-69
2023/07/08 05:29:27;;;;;;;0.00;0.00;;;;;;;;;;7379137;19;20232;-69
2023/07/08 05:31:59;;;;;;;0.00;0.00;;;;;;;;;;7375302;19;20153;-70
2023/07/08 05:34:28;;;;;;;0.00;0.00;;;;;;;;;;7378350;19;20184;-70
2023/07/08 05:36:57;;;;;;;0.00;0.00;;;;;;;;;;7377972;19;20149;-69
2023/07/08 05:39:26;;;;;;;0.00;0.00;;;;;;;;;;7376616;19;20674;-71
2023/07/08 05:41:55;;;;;;;0.00;0.00;;;;;;;;;;7378904;19;20148;-68
2023/07/08 05:44:24;;;;;;;0.00;0.00;;;;;;;;;;7377111;19;20192;-70
2023/07/08 05:46:53;;;;;;;0.00;0.00;;;;;;;;;;7377422;19;20152;-70
2023/07/08 05:49:25;;;;;;;0.00;0.00;;;;;;;;;;7376422;19;20200;-69
2023/07/08 05:51:54;;;;;;;0.00;0.00;;;;;;;;;;7378523;19;20145;-69
2023/07/08 05:54:23;;;;;;;0.00;0.00;;;;;;;;;;7376316;19;20180;-70
2023/07/08 05:56:52;;;;;;;0.00;0.00;;;;;;;;;;7375851;19;20148;-70
2023/07/08 05:59:21;;;;;;;0.00;0.00;;;;;;;;;;7378024;19;20171;-70
2023/07/08 06:01:50;;;;;;;0.00;0.00;;;;;;;;;;7378048;19;20177;-69
2023/07/08 06:04:20;;;;;;;0.00;0.00;;;;;;;;;;7376854;19;20184;-71
2023/07/08 06:06:52;;;;;;;0.00;0.00;;;;;;;;;;7376604;19;20168;-70
2023/07/08 06:09:21;;;;;;;0.00;0.00;;;;;;;;;;7378388;19;20170;-70
2023/07/08 06:11:50;;;;;;;0.00;0.00;;;;;;;;;;7376596;19;20156;-70
2023/07/08 06:14:19;;;;;;;0.00;0.00;;;;;;;;;;7377583;19;20231;-71
2023/07/08 06:16:48;;;;;;;0.00;0.00;;;;;;;;;;7375655;19;20160;-71
2023/07/08 06:19:17;;;;;;;0.00;0.00;;;;;;;;;;7378361;19;20148;-70
2023/07/08 06:21:46;;;;;;;0.00;0.00;;;;;;;;;;7376999;19;20159;-70
2023/07/08 06:24:18;;;;;;;0.00;0.00;;;;;;;;;;7376073;19;20718;-73
2023/07/08 06:26:47;;;;;;;0.00;0.00;;;;;;;;;;7375545;19;20148;-70
2023/07/08 06:29:16;;;;;;;0.00;0.00;;;;;;;;;;7377993;19;20148;-70
2023/07/08 06:31:45;;;;;;;0.00;0.00;;;;;;;;;;7373872;19;20141;-70
2023/07/08 06:34:14;;;;;;;0.00;0.00;;;;;;;;;;7377184;19;20213;-70
2023/07/08 06:36:43;;;;;;;0.00;0.00;;;;;;;;;;7373313;19;20153;-70
2023/07/08 06:39:12;;;;;;;0.00;0.00;;;;;;;;;;7377046;19;20152;-70
2023/07/08 06:41:44;;;;;;;0.00;0.00;;;;;;;;;;7376141;19;20152;-73
2023/07/08 06:44:13;;;;;;;0.00;0.00;;;;;;;;;;7376641;19;20180;-71
2023/07/08 06:46:42;;;;;;;0.00;0.00;;;;;;;;;;7376044;19;20174;-73
2023/07/08 06:49:12;;;;;;;0.00;0.00;;;25.30;99.90;;;;;;7377779;19;20152;-72
2023/07/08 06:51:42;;;;;;;0.00;0.00;;;;;;;;;;7375515;19;20153;-71
2023/07/08 06:54:13;;;;;;;0.00;0.00;;;25.70;99.90;;;;;;7375586;19;20176;-71
2023/07/08 06:56:45;;;;;;;0.00;0.00;;;;;;;;;;7374809;19;20156;-71
2023/07/08 06:59:14;;;;;;;0.00;0.00;;;26.10;99.90;;;;;;7377255;19;20157;-73
2023/07/08 07:01:43;;;;;;;0.00;0.00;;;26.30;99.90;;;;;;7375993;19;20173;-74
2023/07/08 07:04:11;;;;;;;0.00;0.00;;;;;;;;;;7376669;19;20180;-70
2023/07/08 07:06:40;;;;;;;0.00;0.00;;;26.60;99.90;;;;;;7371610;19;20184;-71
2023/07/08 07:09:09;;;;;;;0.00;0.00;;;26.90;99.90;;;;;;7375798;19;20148;-71
2023/07/08 07:11:38;;;;;;;0.00;0.00;;;26.90;99.90;;;;;;7375635;19;20164;-69
2023/07/08 07:14:09;;;;;;;0.00;0.00;;;26.90;99.90;;;;;;7376239;19;20176;-71
2023/07/08 07:16:38;;;;;;;0.00;0.00;;;27.00;99.90;;;;;;7372515;19;20168;-71
2023/07/08 07:19:07;;;;;;;0.00;0.00;;;26.90;99.90;;;;;;7375614;19;20169;-74
2023/07/08 07:21:35;;;;;;;0.00;0.00;;;26.90;99.90;;;;;;7375421;19;20148;-70
2023/07/08 07:24:06;;;;;;;0.00;0.00;;;27.00;99.90;;;;;;7375884;19;20192;-71
2023/07/08 07:26:36;;;;;;;0.00;0.00;;;27.20;99.90;;;;;;7375323;19;20165;-70
2023/07/08 07:29:05;;;;;;;0.00;0.00;;;27.30;99.90;;;;;;7376520;19;20162;-73
2023/07/08 07:31:39;;;;;;;0.00;0.00;;;;;;;;;;7373643;19;20144;-71
2023/07/08 07:34:08;;;;;;;0.00;0.00;;;;;;;;;;7375550;19;20183;-70
2023/07/08 07:36:37;;;;;;;0.00;0.00;;;;;;;;;;7371996;19;20153;-73
2023/07/08 07:39:06;;;;;;;0.00;0.00;;;27.90;99.90;;;;;;7375718;19;20148;-71
2023/07/08 07:41:35;;;;;;;0.00;0.00;;;28.20;99.90;;;;;;7375398;19;20153;-71
2023/07/08 07:44:03;;;;;;;0.00;0.00;;;28.40;99.90;;;;;;7371406;19;20188;-70
2023/07/08 07:46:32;;;;;;;0.00;0.00;;;28.40;99.90;;;;;;7371241;19;20157;-69
2023/07/08 07:49:04;;;;;;;0.00;0.00;;;28.40;99.90;;;;;;7373231;19;20149;-68
2023/07/08 07:51:33;;;;;;;0.00;0.00;;;28.40;99.90;;;;;;7375763;19;20152;-71
2023/07/08 07:54:02;;;;;;;0.00;0.00;;;;;;;;;;7371617;19;20212;-70
2023/07/08 07:56:31;;;;;;;0.00;0.00;;;;;;;;;;7373649;19;20152;-70
2023/07/08 07:59:00;;;;;;;0.00;0.00;;;;;;;;;;7369636;19;20182;-71
2023/07/08 08:01:29;;;;;;;0.00;0.00;;;;;;;;;;7372654;19;20161;-71
2023/07/08 08:03:58;;;;;;;0.00;0.00;;;;;;;;;;7372829;19;20180;-70
2023/07/08 08:06:30;;;;;;;0.00;0.00;;;;;;;;;;7370375;19;20144;-71
2023/07/08 08:08:59;;;;;;;0.00;0.00;;;29.00;99.90;;;;;;7372435;19;20163;-71
2023/07/08 08:11:28;;;;;;;0.00;0.00;;;;;;;;;;7373932;19;20161;-70
2023/07/08 08:13:57;;;;;;;0.00;0.00;;;30.00;99.90;;;;;;7371914;19;20211;-72
2023/07/08 08:16:26;;;;;;;0.00;0.00;;;29.00;99.90;;;;;;7369767;19;20157;-69
2023/07/08 08:18:55;;;;;;;0.00;0.00;;;29.20;99.90;;;;;;7371136;19;20172;-70
2023/07/08 08:21:31;;;;;;;0.00;0.00;;;29.20;99.90;;;;;;7372365;19;20145;-71
2023/07/08 08:24:01;;;;;;;0.00;0.00;;;;;;;;;;7370153;19;20191;-71
2023/07/08 08:26:31;;;;;;;0.00;0.00;;;29.40;99.90;;;;;;7371969;19;20184;-69
2023/07/08 08:28:59;;;;;;;0.00;0.00;;;29.50;99.90;;;;;;7373014;19;20156;-69
2023/07/08 08:31:31;;;;;;;0.00;0.00;;;;;;;;;;7374114;19;20145;-69
2023/07/08 08:34:00;;;;;;;0.00;0.00;;;29.70;99.90;;;;;;7371901;19;20176;-70
2023/07/08 08:36:31;;;;;;;0.00;0.00;;;29.80;99.90;;;;;;7373583;19;20148;-70
2023/07/08 08:39:00;;;;;;;0.00;0.00;;;29.80;99.90;;;;;;7371630;19;20141;-70
2023/07/08 08:41:33;;;;;;;0.00;0.00;;;30.00;99.90;;;;;;7373924;19;20182;-69
2023/07/08 08:44:04;;;;;;;0.00;0.00;;;30.20;99.90;;;;;;7372089;19;20205;-70
2023/07/08 08:46:39;;;;;;;0.00;0.00;;;30.20;99.90;;;;;;7372775;19;20153;-70
2023/07/08 08:49:18;;;;;;;0.00;0.00;;;30.20;99.90;;;;;;7374649;19;20152;-72
2023/07/08 08:51:51;;;;;;;0.00;0.00;;;30.30;99.90;;;;;;7372530;19;20156;-70
2023/07/08 08:54:19;;;;;;;0.00;0.00;;;30.30;99.90;;;;;;7371484;19;20192;-70
2023/07/08 08:56:55;;;;;;;0.00;0.00;;;30.30;99.90;;;;;;7371230;19;20274;-71
2023/07/08 08:59:35;;;;;;;0.00;0.00;;;30.40;99.90;;;;;;7373935;19;20163;-70
2023/07/08 09:02:05;;;;;;;0.00;0.00;;;30.50;99.90;;;;;;7380211;19;20194;-70
2023/07/08 09:04:38;;;;;;;0.00;0.00;;;30.60;99.90;;;;;;7377602;19;20176;-70
2023/07/08 09:07:23;;;;;;;0.00;0.00;;;30.70;99.90;;;;;;7379917;19;20152;-72
2023/07/08 09:09:58;;;;;;;0.00;0.00;;;30.70;99.90;;;;;;7379819;19;20174;-71
2023/07/08 09:12:29;;;;;;;0.00;0.00;;;;;;;;;;7380866;19;20152;-70
2023/07/08 09:14:58;;;;;;;0.00;0.00;;;;;;;;;;7376450;19;20176;-70
2023/07/08 09:17:32;;;;;;;0.00;0.00;;;;;;;;;;7380655;19;20152;-70
2023/07/08 09:20:04;;;;;;;0.00;0.00;;;;;;;;;;7378383;19;20144;-70
2023/07/08 09:22:39;;;;;;;0.00;0.00;;;;;;;;;;7380397;19;20145;-68
2023/07/08 09:25:14;;;;;;;0.00;0.00;;;;;;;;;;7377926;19;20259;-69
2023/07/08 09:27:43;;;;;;;0.00;0.00;;;;;;;;;;7380502;19;20145;-71
2023/07/08 09:30:16;;;;;;;0.00;0.00;;;;;;;;;;7378392;19;20161;-70
2023/07/08 09:32:45;;;;;;;0.00;0.00;;;;;;;;;;7378597;19;20160;-70
2023/07/08 09:35:22;;;;;;;0.00;0.00;;;;;;;;;;7376743;19;20189;-71
2023/07/08 09:37:54;;;;;;;0.00;0.00;;;;;;;;;;7379831;19;20189;-70
2023/07/08 09:40:25;;;;;;;0.00;0.00;;;;;;;;;;7379718;19;20535;-69
2023/07/08 09:42:55;;;;;;;0.00;0.00;;;;;;;;;;7379805;19;20161;-69
2023/07/08 09:45:25;;;;;;;0.00;0.00;;;;;;;;;;7377254;19;20207;-71
2023/07/08 09:47:56;;;;;;;0.00;0.00;;;;;;;;;;7379976;19;20148;-72
2023/07/08 09:50:26;;;;;;;0.00;0.00;;;;;;;;;;7379679;19;20146;-68
2023/07/08 09:53:00;;;;;;;0.00;0.00;;;;;;;;;;7379022;19;20157;-71
2023/07/08 09:55:29;;;;;;;0.00;0.00;;;;;;;;;;7376227;19;20178;-71
2023/07/08 09:58:01;;;;;;;0.00;0.00;;;;;;;;;;7379648;19;20181;-71
2023/07/08 10:00:33;;;;;;;0.00;0.00;;;;;;;;;;7379186;19;20196;-70
2023/07/08 10:03:05;;;;;;;0.00;0.00;;;;;;;;;;7378710;19;20146;-69
2023/07/08 10:05:36;;;;;;;0.00;0.00;;;;;;;;;;7376187;19;20184;-69
2023/07/08 10:08:16;;;;;;;0.00;0.00;;;;;;;;;;7379384;19;20149;-69
2023/07/08 10:10:46;;;;;;;0.00;0.00;;;;;;;;;;7378238;19;20161;-72
2023/07/08 10:13:19;;;;;;;0.00;0.00;;;;;;;;;;7378186;19;20693;-70
2023/07/08 10:15:50;;;;;;;0.00;0.00;;;;;;;;;;7368439;19;20153;-70
2023/07/08 10:18:20;;;;;;;0.00;0.00;;;;;;;;;;7373111;19;20157;-70
2023/07/08 10:20:54;;;;;;;0.00;0.00;;;;;;;;;;7375435;19;20155;-70
2023/07/08 10:23:31;;;;;;;0.00;0.00;;;;;;;;;;7377602;19;20163;-69
2023/07/08 10:26:03;;;;;;;0.00;0.00;;;;;;;;;;7374344;19;20179;-69
2023/07/08 10:28:37;;;;;;;0.00;0.00;;;;;;;;;;7372191;19;20168;-70
2023/07/08 10:31:14;;;;;;;0.00;0.00;;;;;;;;;;7378053;19;20530;-69
2023/07/08 10:34:01;;;;;;;0.00;0.00;;;;;;;;;;7374043;19;20544;-69
2023/07/08 10:36:33;;;;;;;0.00;0.00;;;;;;;;;;7373829;19;20810;-72
2023/07/08 10:39:18;;;;;;;0.00;0.00;;;;;;;;;;7375438;19;20171;-69
2023/07/08 10:41:54;;;;;;;0.00;0.00;;;;;;;;;;7375479;19;20170;-71
2023/07/08 10:44:26;;;;;;;0.00;0.00;;;;;;;;;;7377602;19;20293;-70
2023/07/08 10:47:00;;;;;;;0.00;0.00;;;;;;;;;;7371223;19;20216;-69
2023/07/08 10:49:37;;;;;;;0.00;0.00;;;;;;;;;;7369148;19;20637;-71
2023/07/08 10:52:11;;;;;;;0.00;0.00;;;;;;;;;;7377442;19;20218;-69
2023/07/08 10:54:54;;;;;;;0.00;0.00;;;;;;;;;;7369717;19;20186;-70
2023/07/08 10:57:33;;;;;;;0.00;0.00;;;;;;;;;;7377348;19;20147;-70
2023/07/08 11:00:05;;;;;;;0.00;0.00;;;;;;;;;;7374752;19;20145;-70
2023/07/08 11:02:54;;;;;;;0.00;0.00;;;;;;;;;;7376941;19;20184;-70
2023/07/08 11:05:30;;;;;;;0.00;0.00;;;;;;;;;;7372369;19;20270;-70
2023/07/08 11:08:03;;;;;;;0.00;0.00;;;;;;;;;;7375972;19;20224;-69
2023/07/08 11:10:37;;;;;;;0.00;0.00;;;;;;;;;;7375672;19;20161;-70
2023/07/08 11:13:08;;;;;;;0.00;0.00;;;;;;;;;;7375606;19;20230;-70
2023/07/08 11:15:40;;;;;;;0.00;0.00;;;;;;;;;;7373084;19;20179;-70
2023/07/08 11:18:11;;;;;;;0.00;0.00;;;;;;;;;;7376149;19;20155;-69
2023/07/08 11:20:43;;;;;;;0.00;0.00;;;;;;;;;;7375460;19;20169;-69
2023/07/08 11:23:18;;;;;;;0.00;0.00;;;;;;;;;;7374432;19;20151;-69
2023/07/08 11:25:51;;;;;;;0.00;0.00;;;;;;;;;;7373682;19;20151;-71
2023/07/08 11:28:22;;;;;;;0.00;0.00;;;;;;;;;;7372677;19;20187;-69
2023/07/08 11:30:53;;;;;;;0.00;0.00;;;;;;;;;;7373517;19;20167;-70
2023/07/08 11:33:25;;;;;;;0.00;0.00;;;;;;;;;;7374698;19;20177;-69
2023/07/08 11:35:57;;;;;;;0.00;0.00;;;;;;;;;;7371185;19;20156;-69
2023/07/08 11:38:27;;;;;;;0.00;0.00;;;;;;;;;;7376241;19;20184;-70
2023/07/08 11:41:00;;;;;;;0.00;0.00;;;;;;;;;;7373812;19;20180;-71
2023/07/08 11:43:31;;;;;;;0.00;0.00;;;;;;;;;;7374238;19;20146;-70
2023/07/08 11:46:00;;;;;;;0.00;0.00;;;;;;;;;;7371807;19;20187;-69
2023/07/08 11:48:31;;;;;;;0.00;0.00;;;;;;;;;;7374423;19;20161;-69
2023/07/08 11:51:01;;;;;;;0.00;0.00;;;;;;;;;;7372104;19;20184;-69
2023/07/08 11:53:40;;;;;;;0.00;0.00;;;;;;;;;;7368332;19;20151;-69
2023/07/08 11:56:25;;;;;;;0.00;0.00;;;;;;;;;;7373494;19;20149;-70
2023/07/08 11:59:02;;;;;;;0.00;0.00;;;;;;;;;;7370580;19;20163;-72
2023/07/08 12:01:32;;;;;;;0.00;0.00;;;;;;;;;;7374259;19;20223;-70
2023/07/08 12:04:03;;;;;;;0.00;0.00;;;;;;;;;;7372579;19;20219;-70
2023/07/08 12:06:47;;;;;;;0.00;0.00;;;;;;;;;;7372514;19;20238;-71
2023/07/08 12:09:17;;;;;;;0.00;0.00;;;;;;;;;;7373192;19;20177;-71
2023/07/08 12:11:57;;;;;;;0.00;0.00;;;;;;;;;;7373023;19;20226;-70
2023/07/08 12:14:26;;;;;;;0.00;0.00;;;;;;;;;;7369473;19;20216;-73
2023/07/08 12:16:56;;;;;;;0.00;0.00;;;;;;;;;;7371607;19;20157;-70
2023/07/08 12:19:27;;;;;;;0.00;0.00;;;;;;;;;;7372963;19;20228;-71
2023/07/08 12:21:56;;;;;;;0.00;0.00;;;;;;;;;;7372318;19;20146;-72
2023/07/08 12:24:27;;;;;;;0.00;0.00;;;;;;;;;;7370255;19;20248;-71
2023/07/08 12:26:59;;;;;;;0.00;0.00;;;;;;;;;;7369490;19;20150;-70
2023/07/08 12:29:28;;;;;;;0.00;0.00;;;;;;;;;;7369946;19;20150;-70
2023/07/08 12:31:57;;;;;;;0.00;0.00;;;;;;;;;;7371412;19;20153;-69
2023/07/08 12:34:29;;;;;;;0.00;0.00;;;;;;;;;;7371043;19;20203;-69
2023/07/08 12:36:58;;;;;;;0.00;0.00;;;;;;;;;;7372535;19;20157;-72
2023/07/08 12:39:27;;;;;;;0.00;0.00;;;;;;;;;;7373818;19;20146;-68
2023/07/08 12:42:00;;;;;;;0.00;0.00;;;;;;;;;;7369055;19;20146;-71
2023/07/08 12:44:29;;;;;;;0.00;0.00;;;;;;;;;;7373167;19;20173;-70
2023/07/08 12:46:58;;;;;;;0.00;0.00;;;;;;;;;;7370137;19;20666;-70
2023/07/08 12:49:29;;;;;;;0.00;0.00;;;;;;;;;;7373687;19;20164;-68
2023/07/08 12:51:58;;;;;;;0.00;0.00;;;;;;;;;;7373183;19;20159;-71
2023/07/08 12:54:27;;;;;;;0.00;0.00;;;;;;;;;;7373235;19;20183;-71
2023/07/08 12:56:59;;;;;;;0.00;0.00;;;;;;;;;;7371700;19;20678;-71
2023/07/08 12:59:28;;;;;;;0.00;0.00;;;;;;;;;;7374126;19;20172;-70
2023/07/08 13:01:58;;;;;;;0.00;0.00;;;;;;;;;;7372609;19;20153;-71
2023/07/08 13:04:27;;;;;;;0.00;0.00;;;;;;;;;;7372374;19;20240;-71
2023/07/08 13:06:57;;;;;;;0.00;0.00;;;;;;;;;;7370849;19;20173;-69
2023/07/08 13:09:37;;;;;;;0.00;0.00;;;;;;;;;;7372437;19;20177;-72
2023/07/08 13:12:16;;;;;;;0.00;0.00;;;;;;;;;;7372894;19;20223;-70
2023/07/08 13:14:46;;;;;;;0.00;0.00;;;;;;;;;;7369909;19;20244;-71
2023/07/08 13:17:16;;;;;;;0.00;0.00;;;;;;;;;;7372424;19;20153;-70
2023/07/08 13:19:46;;;;;;;0.00;0.00;;;;;;;;;;7370191;19;20176;-69
2023/07/08 13:22:17;;;;;;;0.00;0.00;;;;;;;;;;7373118;19;20157;-70
2023/07/08 13:24:47;;;;;;;0.00;0.00;;;;;;;;;;7370252;19;20218;-70
2023/07/08 13:27:21;;;;;;;0.00;0.00;;;;;;;;;;7371007;19;20149;-69
2023/07/08 13:29:50;;;;;;;0.00;0.00;;;;;;;;;;7371705;19;20156;-70
2023/07/08 13:32:19;;;;;;;0.00;0.00;;;;;;;;;;7372625;19;20197;-69
2023/07/08 13:34:52;;;;;;;0.00;0.00;;;;;;;;;;7369950;19;20194;-70
2023/07/08 13:37:25;;;;;;;0.00;0.00;;;;;;;;;;7373143;19;20165;-71
2023/07/08 13:39:55;;;;;;;0.00;0.00;;;;;;;;;;7371219;19;20149;-71
2023/07/08 13:42:27;;;;;;;0.00;0.00;;;;;;;;;;7371156;19;20170;-70
2023/07/08 13:44:56;;;;;;;0.00;0.00;;;;;;;;;;7370770;19;20771;-71
2023/07/08 13:47:27;;;;;;;0.00;0.00;;;;;;;;;;7377743;19;20172;-70
2023/07/08 13:49:59;;;;;;;0.00;0.00;;;;;;;;;;7378563;19;20198;-71
2023/07/08 13:52:28;;;;;;;0.00;0.00;;;;;;;;;;7380106;19;20151;-71
2023/07/08 13:55:01;;;;;;;0.00;0.00;;;;;;;;;;7375654;19;20175;-70
2023/07/08 13:57:35;;;;;;;0.00;0.00;;;;;;;;;;7379301;19;20621;-71
2023/07/08 14:00:05;;;;;;;0.00;0.00;;;;;;;;;;7379579;19;20157;-70
2023/07/08 14:02:42;;;;;;;0.00;0.00;;;;;;;;;;7382043;19;20147;-71
2023/07/08 14:05:13;;;;;;;0.00;0.00;;;;;;;;;;7376292;19;20170;-72
2023/07/08 14:07:43;;;;;;;0.00;0.00;;;;;;;;;;7378187;19;20152;-71
2023/07/08 14:10:14;;;;;;;0.00;0.00;;;;;;;;;;7379422;19;20151;-71
2023/07/08 14:12:46;;;;;;;0.00;0.00;;;;;;;;;;7379376;19;20225;-70
2023/07/08 14:15:15;;;;;;;0.00;0.00;;;;;;;;;;7376230;19;20191;-70
2023/07/08 14:17:44;;;;;;;0.00;0.00;;;;;;;;;;7378491;19;20633;-69
2023/07/08 14:20:15;;;;;;;0.00;0.00;;;;;;;;;;7378401;19;20151;-71
2023/07/08 14:22:44;;;;;;;0.00;0.00;;;;;;;;;;7378104;19;20150;-72
2023/07/08 14:25:14;;;;;;;0.00;0.00;;;;;;;;;;7374334;19;20188;-72
2023/07/08 14:27:45;;;;;;;0.00;0.00;;;;;;;;;;7378186;19;20154;-71
2023/07/08 14:30:15;;;;;;;0.00;0.00;;;;;;;;;;7376784;19;20643;-71
2023/07/08 14:32:44;;;;;;;0.00;0.00;;;;;;;;;;7377947;19;20187;-70
2023/07/08 14:35:18;;;;;;;0.00;0.00;;;;;;;;;;7375898;19;20175;-70
2023/07/08 14:37:47;;;;;;;0.00;0.00;;;;;;;;;;7379224;19;20194;-70
2023/07/08 14:40:24;;;;;;;0.00;0.00;;;;;;;;;;7385032;19;20159;-70